Time;durP1;ratioP1;P1;durP2;ratioP2;P2;SDS_P1;SDS_P2;PMS_P1;PMS_P2;Temp;Humidity;BMP_temperature;BMP_pressure;BME280_temperature;BME280_humidity;BME280_pressure;Samples;Min_cycle;Max_cycle;Signal;HPM_P1;HPM_P2
2023/12/05 00:01:56;;;;;;;2.63;2.05;;;20.70;55.10;;;;;;5093905;28;20051;-31
2023/12/05 00:04:25;;;;;;;2.85;2.22;;;21.00;62.10;;;;;;5093605;28;20047;-30
2023/12/05 00:06:51;;;;;;;2.38;2.10;;;20.70;61.90;;;;;;5093806;28;20044;-26
2023/12/05 00:09:19;;;;;;;2.40;2.10;;;19.80;45.10;;;;;;5093723;28;20093;-28
2023/12/05 00:11:46;;;;;;;2.70;2.30;;;20.50;62.00;;;;;;5091624;28;20131;-26
2023/12/05 00:14:13;;;;;;;2.78;2.20;;;21.60;51.80;;;;;;5093408;28;20052;-27
2023/12/05 00:16:39;;;;;;;2.92;2.42;;;21.10;63.10;;;;;;5093393;28;20044;-26
2023/12/05 00:19:07;;;;;;;3.08;2.40;;;;;;;;;;5093665;28;20097;-28
2023/12/05 00:21:35;;;;;;;3.03;2.22;;;21.30;63.40;;;;;;5093597;28;20044;-30
2023/12/05 00:24:02;;;;;;;2.47;2.03;;;20.40;62.30;;;;;;5093116;28;20052;-32
2023/12/05 00:26:29;;;;;;;3.10;2.35;;;;;;;;;;5091573;28;20047;-31
2023/12/05 00:28:56;;;;;;;2.42;2.13;;;19.90;62.90;;;;;;5093071;28;20048;-30
2023/12/05 00:31:22;;;;;;;2.67;2.08;;;20.30;62.40;;;;;;5093591;28;20044;-31
2023/12/05 00:33:49;;;;;;;2.83;2.20;;;20.20;61.90;;;;;;5093025;28;20051;-25
2023/12/05 00:36:16;;;;;;;2.75;2.20;;;20.70;63.60;;;;;;5092567;28;20040;-25
2023/12/05 00:38:44;;;;;;;2.83;2.20;;;20.10;43.10;;;;;;5093131;28;20109;-31
2023/12/05 00:41:11;;;;;;;3.10;2.40;;;;;;;;;;5093024;28;20093;-29
2023/12/05 00:43:38;;;;;;;3.45;2.30;;;20.10;56.10;;;;;;5083038;28;20044;-27
2023/12/05 00:46:05;;;;;;;2.50;2.00;;;;;;;;;;5072627;28;20052;-28
2023/12/05 00:48:32;;;;;;;2.70;2.13;;;20.70;63.10;;;;;;5084114;28;20044;-33
2023/12/05 00:50:59;;;;;;;2.65;2.28;;;;;;;;;;5092754;28;20055;-30
2023/12/05 00:53:26;;;;;;;3.13;2.00;;;19.70;62.60;;;;;;5092468;28;20047;-32
2023/12/05 00:55:54;;;;;;;2.97;2.33;;;20.00;62.90;;;;;;5093022;28;20116;-31
2023/12/05 00:58:22;;;;;;;2.95;2.50;;;;;;;;;;5078751;28;20044;-33
2023/12/05 01:00:48;;;;;;;3.10;2.33;;;19.80;62.70;;;;;;5072429;28;20045;-26
2023/12/05 01:03:15;;;;;;;2.50;2.30;;;19.70;63.70;;;;;;5072192;28;20048;-31
2023/12/05 01:05:42;;;;;;;2.30;2.05;;;19.40;62.10;;;;;;5072193;28;20079;-27
2023/12/05 01:08:09;;;;;;;2.40;1.98;;;18.60;62.30;;;;;;5072067;28;20052;-26
2023/12/05 01:10:36;;;;;;;2.80;2.40;;;;;;;;;;5072518;28;20044;-32
2023/12/05 01:13:06;;;;;;;2.70;2.33;;;19.60;43.30;;;;;;5074288;28;20063;-27
2023/12/05 01:15:33;;;;;;;2.70;2.45;;;19.50;62.70;;;;;;5092255;28;20044;-28
2023/12/05 01:17:59;;;;;;;2.83;2.28;;;19.00;63.70;;;;;;5092233;28;20421;-28
2023/12/05 01:20:26;;;;;;;2.47;2.20;;;19.90;43.50;;;;;;5092094;28;20052;-27
2023/12/05 01:22:53;;;;;;;2.80;2.50;;;19.40;63.00;;;;;;5092436;28;20048;-31
2023/12/05 01:25:20;;;;;;;2.55;2.25;;;;;;;;;;5092133;28;20044;-31
2023/12/05 01:27:48;;;;;;;2.78;2.30;;;19.70;63.70;;;;;;5092358;28;20048;-32
2023/12/05 01:30:16;;;;;;;2.72;2.28;;;19.50;43.40;;;;;;5083369;28;20079;-31
2023/12/05 01:32:43;;;;;;;2.75;2.35;;;19.20;56.20;;;;;;5072001;28;20061;-29
2023/12/05 01:35:10;;;;;;;2.90;2.30;;;19.30;63.20;;;;;;5072073;28;20075;-30
2023/12/05 01:37:38;;;;;;;2.85;2.40;;;19.50;63.30;;;;;;5086264;28;20497;-31
2023/12/05 01:40:06;;;;;;;3.25;2.60;;;20.60;48.20;;;;;;5092033;28;20079;-29
2023/12/05 01:42:36;;;;;;;3.03;2.40;;;19.00;49.10;;;;;;5092004;28;20113;-28
2023/12/05 01:45:04;;;;;;;3.38;2.40;;;19.40;63.50;;;;;;5091764;28;20052;-25
2023/12/05 01:47:32;;;;;;;3.10;2.63;;;19.10;47.60;;;;;;5078567;28;20071;-26
2023/12/05 01:49:59;;;;;;;2.70;2.33;;;;;;;;;;5071885;28;20118;-25
2023/12/05 01:52:26;;;;;;;2.97;2.33;;;19.10;63.40;;;;;;5072037;28;20105;-25
2023/12/05 01:54:53;;;;;;;2.50;2.30;;;18.50;63.20;;;;;;5084412;28;20053;-30
2023/12/05 01:57:20;;;;;;;2.50;2.30;;;19.10;63.50;;;;;;5091940;28;20543;-25
2023/12/05 01:59:47;;;;;;;2.67;2.30;;;;;;;;;;5091730;28;20048;-29
2023/12/05 02:02:14;;;;;;;3.67;2.70;;;18.90;63.90;;;;;;5091314;28;20097;-25
2023/12/05 02:04:43;;;;;;;3.97;2.60;;;19.90;64.40;;;;;;5072078;28;20049;-25
2023/12/05 02:07:10;;;;;;;2.85;2.45;;;;;;;;;;5071864;28;20048;-30
2023/12/05 02:09:38;;;;;;;3.15;2.47;;;;;;;;;;5071662;28;20085;-25
2023/12/05 02:12:05;;;;;;;2.83;2.30;;;19.40;64.60;;;;;;5071470;28;20056;-26
2023/12/05 02:14:32;;;;;;;2.83;2.53;;;19.40;59.70;;;;;;5072489;28;20486;-26
2023/12/05 02:17:04;;;;;;;3.00;2.50;;;20.30;64.50;;;;;;5071188;28;20044;-26
2023/12/05 02:19:48;;;;;;;3.55;2.78;;;18.90;63.60;;;;;;5071909;28;20468;-25
2023/12/05 02:22:22;;;;;;;2.63;2.30;;;18.70;63.90;;;;;;5075488;28;20459;-26
2023/12/05 02:24:54;;;;;;;2.67;2.30;;;18.30;63.90;;;;;;5075272;28;20113;-25
2023/12/05 02:27:28;;;;;;;2.50;2.30;;;19.00;43.70;;;;;;5075096;28;20048;-26
2023/12/05 02:29:55;;;;;;;2.33;2.13;;;18.80;60.70;;;;;;5075537;28;20044;-26
2023/12/05 02:32:21;;;;;;;3.03;2.50;;;18.20;63.90;;;;;;5075290;28;20471;-25
2023/12/05 02:34:49;;;;;;;2.85;2.30;;;;;;;;;;5074703;28;20048;-29
2023/12/05 02:37:19;;;;;;;3.30;2.45;;;18.90;43.70;;;;;;5086780;28;20166;-27
2023/12/05 02:39:49;;;;;;;2.65;2.30;;;18.90;64.00;;;;;;5077381;28;20057;-26
2023/12/05 02:42:16;;;;;;;2.50;2.25;;;19.80;64.90;;;;;;5095579;28;20060;-26
2023/12/05 02:44:47;;;;;;;2.60;2.20;;;18.70;61.60;;;;;;5094799;28;20078;-29
2023/12/05 02:47:14;;;;;;;3.00;2.63;;;19.50;64.30;;;;;;5095434;28;20509;-29
2023/12/05 02:49:40;;;;;;;3.03;2.40;;;18.80;63.60;;;;;;5095239;28;20105;-29
2023/12/05 02:52:07;;;;;;;2.72;2.35;;;18.70;57.80;;;;;;5091354;28;20040;-30
2023/12/05 02:54:34;;;;;;;2.88;2.40;;;18.70;57.90;;;;;;5085321;28;20048;-31
2023/12/05 02:57:01;;;;;;;2.83;2.33;;;;;;;;;;5094643;28;20052;-28
2023/12/05 02:59:28;;;;;;;2.78;2.30;;;19.00;64.50;;;;;;5095140;28;20047;-30
2023/12/05 03:01:57;;;;;;;2.65;2.38;;;19.90;44.50;;;;;;5095121;28;20093;-28
2023/12/05 03:04:24;;;;;;;2.70;2.30;;;;;;;;;;5094867;28;20101;-30
2023/12/05 03:06:51;;;;;;;2.90;2.50;;;18.40;62.50;;;;;;5094854;28;20044;-31
2023/12/05 03:09:18;;;;;;;2.95;2.65;;;;;;;;;;5086473;28;20106;-30
2023/12/05 03:11:45;;;;;;;2.50;2.20;;;18.80;64.70;;;;;;5074724;28;20102;-31
2023/12/05 03:14:12;;;;;;;2.40;2.08;;;;;;;;;;5074334;28;20044;-30
2023/12/05 03:16:39;;;;;;;3.00;2.30;;;18.80;64.30;;;;;;5074371;28;20563;-32
2023/12/05 03:19:07;;;;;;;2.67;2.40;;;18.80;43.90;;;;;;5074202;28;20053;-28
2023/12/05 03:21:34;;;;;;;2.58;2.10;;;;;;;;;;5074293;28;20071;-28
2023/12/05 03:24:01;;;;;;;2.58;2.35;;;18.60;64.10;;;;;;5074377;28;20053;-31
2023/12/05 03:26:28;;;;;;;2.60;2.13;;;;;;;;;;5078207;28;20447;-29
2023/12/05 03:28:55;;;;;;;2.88;2.30;;;18.80;64.00;;;;;;5074422;28;20436;-26
2023/12/05 03:31:22;;;;;;;3.15;2.55;;;19.60;65.00;;;;;;5072625;28;20052;-27
2023/12/05 03:33:49;;;;;;;2.30;2.10;;;19.00;64.10;;;;;;5074025;28;20712;-26
2023/12/05 03:36:17;;;;;;;3.28;2.20;;;18.60;64.20;;;;;;5077152;28;20089;-26
2023/12/05 03:38:44;;;;;;;2.50;2.17;;;18.90;63.70;;;;;;5094348;28;20747;-31
2023/12/05 03:41:11;;;;;;;3.38;2.25;;;19.00;58.50;;;;;;5093519;28;20048;-28
2023/12/05 03:43:38;;;;;;;2.60;2.20;;;18.10;63.80;;;;;;5094041;28;20048;-33
2023/12/05 03:46:05;;;;;;;3.13;2.40;;;19.10;43.90;;;;;;5094163;28;20048;-29
2023/12/05 03:48:32;;;;;;;2.40;2.05;;;18.90;64.20;;;;;;5093841;28;20101;-30
2023/12/05 03:50:58;;;;;;;2.28;2.00;;;19.20;64.00;;;;;;5094344;28;20043;-32
2023/12/05 03:53:27;;;;;;;2.78;2.30;;;19.00;64.20;;;;;;5093991;28;20097;-29
2023/12/05 03:55:53;;;;;;;2.50;2.10;;;18.30;63.50;;;;;;5093789;28;20056;-31
2023/12/05 03:58:20;;;;;;;3.13;2.00;;;19.10;63.80;;;;;;5083793;28;20055;-31
2023/12/05 04:00:47;;;;;;;3.03;2.30;;;19.10;46.40;;;;;;5073634;28;20102;-27
2023/12/05 04:03:14;;;;;;;2.80;2.10;;;19.30;63.80;;;;;;5073850;28;20052;-27
2023/12/05 04:05:41;;;;;;;2.65;2.20;;;;;;;;;;5073188;28;20490;-29
2023/12/05 04:08:08;;;;;;;2.50;2.03;;;20.60;64.70;;;;;;5073797;28;20398;-27
2023/12/05 04:10:37;;;;;;;2.60;2.17;;;19.40;43.60;;;;;;5073197;28;20052;-29
2023/12/05 04:13:04;;;;;;;2.60;2.10;;;;;;;;;;5073451;28;20075;-29
2023/12/05 04:15:31;;;;;;;2.67;1.90;;;19.50;63.50;;;;;;5072990;28;20143;-27
2023/12/05 04:17:58;;;;;;;2.20;1.95;;;;;;;;;;5073305;28;20174;-28
2023/12/05 04:20:25;;;;;;;2.65;2.10;;;19.60;63.50;;;;;;5073289;28;20053;-26
2023/12/05 04:22:52;;;;;;;2.90;2.20;;;;;;;;;;5073280;28;20056;-29
2023/12/05 04:25:19;;;;;;;3.10;2.28;;;;;;;;;;5072990;28;20048;-27
2023/12/05 04:27:47;;;;;;;3.00;2.47;;;19.60;43.50;;;;;;5072970;28;20102;-29
2023/12/05 04:30:14;;;;;;;3.30;1.90;;;19.60;46.90;;;;;;5074221;28;20052;-28
2023/12/05 04:32:41;;;;;;;2.05;1.80;;;19.50;63.20;;;;;;5077084;28;20523;-26
2023/12/05 04:35:08;;;;;;;2.53;2.00;;;;;;;;;;5093141;28;20067;-30
2023/12/05 04:37:35;;;;;;;3.25;2.10;;;19.90;53.70;;;;;;5092870;28;20119;-27
2023/12/05 04:40:02;;;;;;;3.00;2.20;;;;;;;;;;5077415;28;20052;-30
2023/12/05 04:42:29;;;;;;;2.88;2.00;;;19.70;63.40;;;;;;5072408;28;20048;-27
2023/12/05 04:44:57;;;;;;;2.80;2.42;;;19.10;62.90;;;;;;5072683;28;20114;-26
2023/12/05 04:47:24;;;;;;;2.10;1.90;;;19.70;63.50;;;;;;5073824;28;20102;-26
2023/12/05 04:49:51;;;;;;;3.58;2.13;;;19.60;44.60;;;;;;5072742;28;20116;-27
2023/12/05 04:52:18;;;;;;;2.30;2.08;;;20.20;63.70;;;;;;5072702;28;20493;-27
2023/12/05 04:54:45;;;;;;;2.10;1.90;;;;;;;;;;5084465;28;20077;-27
2023/12/05 04:57:12;;;;;;;3.10;2.25;;;;;;;;;;5092646;28;20490;-27
2023/12/05 04:59:39;;;;;;;2.70;2.22;;;20.40;48.60;;;;;;5092488;28;20501;-27
2023/12/05 05:02:07;;;;;;;2.80;2.28;;;19.70;63.30;;;;;;5092658;28;20040;-27
2023/12/05 05:04:34;;;;;;;2.55;2.10;;;19.70;63.10;;;;;;5077350;28;20494;-27
2023/12/05 05:07:03;;;;;;;3.03;2.38;;;;;;;;;;5072215;28;20106;-26
2023/12/05 05:09:30;;;;;;;2.38;2.00;;;19.70;57.30;;;;;;5072070;28;20056;-26
2023/12/05 05:11:57;;;;;;;2.90;2.33;;;;;;;;;;5072391;28;20055;-29
2023/12/05 05:14:25;;;;;;;3.38;2.22;;;;;;;;;;5071975;28;20394;-32
2023/12/05 05:16:51;;;;;;;2.33;2.13;;;19.90;48.40;;;;;;5072193;28;20575;-31
2023/12/05 05:19:20;;;;;;;2.50;2.10;;;20.90;63.90;;;;;;5073266;28;20055;-31
2023/12/05 05:21:48;;;;;;;2.58;2.13;;;;;;;;;;5071865;28;20512;-29
2023/12/05 05:24:15;;;;;;;2.58;2.30;;;19.80;63.40;;;;;;5071838;28;20440;-33
2023/12/05 05:26:42;;;;;;;2.80;2.13;;;;;;;;;;5072054;28;20501;-29
2023/12/05 05:29:09;;;;;;;2.65;2.20;;;20.00;63.10;;;;;;5078088;28;20451;-26
2023/12/05 05:31:36;;;;;;;2.30;1.90;;;;;;;;;;5092110;28;20637;-31
2023/12/05 05:34:03;;;;;;;2.65;2.00;;;20.00;63.00;;;;;;5092170;28;20066;-25
2023/12/05 05:36:31;;;;;;;2.50;2.22;;;20.70;49.40;;;;;;5085650;28;20040;-26
2023/12/05 05:38:58;;;;;;;2.67;2.30;;;19.90;54.60;;;;;;5092150;28;20055;-26
2023/12/05 05:41:25;;;;;;;2.63;2.10;;;19.80;63.40;;;;;;5090919;28;20132;-25
2023/12/05 05:43:52;;;;;;;2.60;2.25;;;;;;;;;;5091923;28;20496;-30
2023/12/05 05:46:19;;;;;;;2.55;2.15;;;19.80;62.90;;;;;;5091784;28;20550;-26
2023/12/05 05:48:46;;;;;;;2.47;2.03;;;;;;;;;;5091869;28;20052;-30
2023/12/05 05:51:13;;;;;;;2.92;2.35;;;;;;;;;;5092027;28;20113;-27
2023/12/05 05:53:42;;;;;;;2.63;2.20;;;19.90;43.10;;;;;;5080252;28;20497;-32
2023/12/05 05:56:09;;;;;;;2.53;2.28;;;19.90;48.90;;;;;;5091387;28;20056;-26
2023/12/05 05:58:37;;;;;;;2.53;2.20;;;;;;;;;;5091864;28;20048;-29
2023/12/05 06:01:04;;;;;;;2.50;2.13;;;19.90;62.90;;;;;;5091840;28;20118;-26
2023/12/05 06:03:31;;;;;;;2.90;2.22;;;;;;;;;;5091939;28;20051;-28
2023/12/05 06:05:59;;;;;;;2.53;2.10;;;20.60;63.70;;;;;;5091438;28;20075;-25
2023/12/05 06:08:26;;;;;;;4.53;2.42;;;20.20;63.10;;;;;;5092067;28;20080;-25
2023/12/05 06:10:54;;;;;;;2.90;2.47;;;19.90;43.10;;;;;;5074129;28;20052;-27
2023/12/05 06:13:21;;;;;;;2.97;2.40;;;19.80;62.80;;;;;;5071418;28;20044;-27
2023/12/05 06:15:47;;;;;;;2.55;2.10;;;21.10;61.10;;;;;;5071229;28;20103;-26
2023/12/05 06:18:15;;;;;;;3.08;2.10;;;19.80;63.30;;;;;;5071630;28;20040;-31
2023/12/05 06:20:42;;;;;;;2.70;2.20;;;20.10;46.20;;;;;;5071423;28;20049;-28
2023/12/05 06:23:09;;;;;;;2.90;2.40;;;;;;;;;;5071628;28;20053;-30
2023/12/05 06:25:36;;;;;;;2.67;2.20;;;20.10;63.00;;;;;;5078421;28;20093;-26
2023/12/05 06:28:05;;;;;;;3.25;2.17;;;20.00;43.20;;;;;;5091168;28;20584;-30
2023/12/05 06:30:32;;;;;;;2.63;2.03;;;18.90;51.40;;;;;;5091647;28;20040;-29
2023/12/05 06:32:58;;;;;;;2.60;2.20;;;20.00;62.90;;;;;;5091495;28;20077;-31
2023/12/05 06:35:26;;;;;;;2.75;2.22;;;;;;;;;;5091550;28;20105;-28
2023/12/05 06:37:53;;;;;;;2.90;2.30;;;20.00;63.20;;;;;;5090981;28;20044;-33
2023/12/05 06:40:20;;;;;;;2.60;2.20;;;;;;;;;;5091493;28;20066;-28
2023/12/05 06:42:47;;;;;;;2.53;2.10;;;20.70;58.70;;;;;;5083706;28;20421;-27
2023/12/05 06:45:15;;;;;;;2.95;2.42;;;20.00;43.10;;;;;;5082546;28;20044;-27
2023/12/05 06:47:42;;;;;;;2.55;2.17;;;19.90;53.30;;;;;;5091422;28;20492;-26
2023/12/05 06:50:11;;;;;;;2.38;2.05;;;20.00;63.30;;;;;;5090868;28;20101;-26
2023/12/05 06:52:38;;;;;;;2.75;2.40;;;19.30;62.60;;;;;;5075778;28;20076;-26
2023/12/05 06:55:06;;;;;;;2.40;2.13;;;20.00;43.10;;;;;;5085768;28;20048;-29
2023/12/05 06:57:33;;;;;;;2.60;2.28;;;19.90;62.70;;;;;;5091373;28;20485;-26
2023/12/05 07:00:00;;;;;;;2.67;2.38;;;19.90;63.10;;;;;;5080690;28;20102;-25
2023/12/05 07:02:28;;;;;;;3.55;2.50;;;20.40;47.30;;;;;;5091450;28;20055;-27
2023/12/05 07:04:57;;;;;;;2.88;2.42;;;19.90;53.30;;;;;;5091080;28;20455;-26
2023/12/05 07:07:24;;;;;;;3.03;2.50;;;20.00;63.20;;;;;;5094034;28;20044;-26
2023/12/05 07:09:51;;;;;;;2.97;2.40;;;19.00;49.90;;;;;;5094958;28;20048;-29
2023/12/05 07:12:18;;;;;;;2.70;2.08;;;21.20;63.70;;;;;;5094696;28;20052;-32
2023/12/05 07:14:45;;;;;;;4.13;2.33;;;21.00;63.60;;;;;;5093033;28;20048;-30
2023/12/05 07:17:12;;;;;;;2.97;2.40;;;20.10;62.90;;;;;;5094851;28;20044;-30
2023/12/05 07:19:40;;;;;;;2.53;2.20;;;19.80;45.60;;;;;;5094415;28;20044;-29
2023/12/05 07:22:07;;;;;;;2.70;2.22;;;19.10;51.20;;;;;;5094753;28;20048;-27
2023/12/05 07:24:34;;;;;;;2.67;2.22;;;20.00;62.80;;;;;;5094328;28;20094;-26
2023/12/05 07:27:01;;;;;;;3.75;2.28;;;;;;;;;;5094548;28;20052;-29
2023/12/05 07:29:28;;;;;;;3.15;2.45;;;20.30;62.90;;;;;;5094590;28;20056;-25
2023/12/05 07:31:55;;;;;;;2.88;2.22;;;;;;;;;;5078990;28;20057;-28
2023/12/05 07:34:22;;;;;;;2.67;2.20;;;20.00;45.70;;;;;;5074067;28;20102;-30
2023/12/05 07:36:50;;;;;;;3.03;2.50;;;20.90;63.70;;;;;;5081799;28;20105;-31
2023/12/05 07:39:17;;;;;;;3.10;2.80;;;;;;;;;;5093191;28;20101;-27
2023/12/05 07:41:44;;;;;;;4.05;2.50;;;19.90;62.70;;;;;;5091508;28;20056;-26
2023/12/05 07:44:12;;;;;;;2.75;2.55;;;;;;;;;;5094011;28;20460;-28
2023/12/05 07:46:42;;;;;;;3.08;2.63;;;19.10;62.40;;;;;;5094088;28;20116;-27
2023/12/05 07:49:08;;;;;;;3.13;2.47;;;20.00;62.90;;;;;;5094213;28;20052;-32
2023/12/05 07:51:35;;;;;;;2.85;2.40;;;20.10;52.10;;;;;;5094043;28;20110;-32
2023/12/05 07:54:05;;;;;;;3.63;2.53;;;20.10;60.40;;;;;;5093236;28;20432;-30
2023/12/05 07:56:32;;;;;;;2.70;2.30;;;;;;;;;;5094458;28;20044;-27
2023/12/05 07:58:59;;;;;;;3.50;2.70;;;20.10;63.00;;;;;;5093938;28;20097;-32
2023/12/05 08:01:26;;;;;;;2.85;2.42;;;;;;;;;;5094029;28;20067;-28
2023/12/05 08:03:56;;;;;;;3.03;2.55;;;;;;;;;;5093791;28;20051;-32
2023/12/05 08:06:23;;;;;;;3.00;2.42;;;20.30;47.50;;;;;;5094266;28;20048;-31
2023/12/05 08:08:51;;;;;;;3.30;2.50;;;;;;;;;;5089442;28;20104;-28
2023/12/05 08:11:20;;;;;;;3.03;2.40;;;20.80;62.80;;;;;;5089245;28;20136;-31
2023/12/05 08:13:49;;;;;;;3.30;2.45;;;20.40;58.20;;;;;;5093722;28;20090;-32
2023/12/05 08:16:16;;;;;;;3.80;2.60;;;;;;;;;;5085029;28;20450;-31
2023/12/05 08:18:43;;;;;;;2.65;2.22;;;20.60;62.40;;;;;;5086314;28;20079;-26
2023/12/05 08:21:10;;;;;;;2.85;2.45;;;21.10;62.50;;;;;;5076247;28;20044;-27
2023/12/05 08:23:37;;;;;;;3.08;2.42;;;20.70;48.20;;;;;;5073003;28;20055;-27
2023/12/05 08:26:04;;;;;;;2.92;2.30;;;21.00;62.40;;;;;;5075727;28;20044;-25
2023/12/05 08:28:34;;;;;;;3.20;2.50;;;20.60;55.40;;;;;;5075627;28;20052;-26
2023/12/05 08:31:01;;;;;;;3.33;2.67;;;;;;;;;;5072848;28;20059;-30
2023/12/05 08:33:28;;;;;;;2.70;2.30;;;20.90;62.40;;;;;;5072701;28;20060;-27
2023/12/05 08:35:55;;;;;;;2.80;2.30;;;;;;;;;;5073582;28;20040;-29
2023/12/05 08:38:22;;;;;;;2.92;2.60;;;20.90;61.90;;;;;;5091981;28;20080;-26
2023/12/05 08:40:49;;;;;;;3.08;2.50;;;;;;;;;;5072807;28;20048;-27
2023/12/05 08:43:16;;;;;;;3.53;2.55;;;21.20;61.80;;;;;;5072551;28;20048;-27
2023/12/05 08:45:44;;;;;;;2.67;2.38;;;21.10;62.10;;;;;;5073179;28;20052;-27
2023/12/05 08:48:11;;;;;;;2.90;2.45;;;;;;;;;;5084177;28;20040;-27
2023/12/05 08:50:41;;;;;;;3.67;2.80;;;21.10;43.80;;;;;;5091245;28;20055;-28
2023/12/05 08:53:08;;;;;;;3.10;2.65;;;;;;;;;;5089633;28;20052;-27
2023/12/05 08:55:35;;;;;;;3.40;2.53;;;21.10;46.10;;;;;;5091869;28;20051;-27
2023/12/05 08:58:02;;;;;;;3.63;2.75;;;21.20;50.90;;;;;;5091988;28;20108;-29
2023/12/05 09:00:29;;;;;;;2.90;2.38;;;;;;;;;;5085579;28;20048;-29
2023/12/05 09:02:59;;;;;;;3.10;2.45;;;21.20;42.40;;;;;;5086159;28;20496;-30
2023/12/05 09:05:26;;;;;;;3.22;2.58;;;21.10;61.50;;;;;;5092200;28;20558;-26
2023/12/05 09:07:52;;;;;;;4.07;2.63;;;21.20;60.10;;;;;;5091054;28;20037;-27
2023/12/05 09:10:20;;;;;;;2.67;2.25;;;;;;;;;;5092573;28;20048;-26
2023/12/05 09:12:46;;;;;;;2.72;2.30;;;21.20;50.20;;;;;;5092443;28;20093;-27
2023/12/05 09:15:13;;;;;;;2.80;2.38;;;21.50;61.50;;;;;;5092306;28;20052;-27
2023/12/05 09:17:40;;;;;;;3.35;2.45;;;;;;;;;;5091946;28;20108;-31
2023/12/05 09:20:10;;;;;;;2.97;2.60;;;21.30;61.70;;;;;;5092462;28;20048;-33
2023/12/05 09:22:37;;;;;;;3.28;2.50;;;22.00;53.80;;;;;;5092373;28;20043;-29
2023/12/05 09:25:04;;;;;;;2.85;2.45;;;21.40;61.50;;;;;;5091667;28;20044;-26
2023/12/05 09:27:31;;;;;;;3.33;2.70;;;21.40;46.70;;;;;;5090298;28;20040;-27
2023/12/05 09:29:58;;;;;;;2.95;2.65;;;21.70;61.80;;;;;;5084257;28;20075;-28
2023/12/05 09:32:25;;;;;;;3.38;2.50;;;;;;;;;;5082941;28;20116;-28
2023/12/05 09:34:52;;;;;;;3.30;2.78;;;21.30;61.60;;;;;;5081107;28;20128;-27
2023/12/05 09:37:20;;;;;;;3.10;2.50;;;21.30;42.20;;;;;;5081739;28;20040;-28
2023/12/05 09:39:47;;;;;;;3.17;2.47;;;;;;;;;;5070918;28;20434;-28
2023/12/05 09:42:14;;;;;;;2.45;2.25;;;21.30;61.20;;;;;;5071115;28;20440;-32
2023/12/05 09:44:42;;;;;;;2.90;2.50;;;21.40;42.20;;;;;;5070589;28;20072;-29
2023/12/05 09:47:10;;;;;;;4.10;2.60;;;22.00;51.30;;;;;;5071594;28;20044;-31
2023/12/05 09:49:37;;;;;;;3.63;2.30;;;;;;;;;;5070909;28;20490;-31
2023/12/05 09:52:05;;;;;;;3.63;2.75;;;21.40;61.50;;;;;;5071354;28;20059;-27
2023/12/05 09:54:33;;;;;;;3.22;2.80;;;21.50;45.00;;;;;;5076949;28;20094;-28
2023/12/05 09:57:00;;;;;;;3.60;2.70;;;21.40;50.50;;;;;;5080804;28;20102;-28
2023/12/05 09:59:27;;;;;;;3.30;2.40;;;21.40;58.20;;;;;;5080454;28;20048;-31
2023/12/05 10:01:56;;;;;;;3.78;2.88;;;21.40;47.60;;;;;;5081078;28;20514;-27
2023/12/05 10:04:23;;;;;;;3.00;2.55;;;21.50;61.00;;;;;;5081931;28;20044;-25
2023/12/05 10:06:50;;;;;;;3.03;2.50;;;21.50;49.10;;;;;;5080742;28;20048;-32
2023/12/05 10:09:17;;;;;;;3.50;2.78;;;21.60;61.20;;;;;;5080769;28;20086;-31
2023/12/05 10:11:45;;;;;;;3.20;2.63;;;21.50;42.10;;;;;;5084643;28;20060;-30
2023/12/05 10:14:12;;;;;;;3.22;2.50;;;;;;;;;;5090006;28;20048;-30
2023/12/05 10:16:39;;;;;;;3.13;2.40;;;21.90;61.60;;;;;;5087748;28;20101;-30
2023/12/05 10:19:06;;;;;;;2.75;2.22;;;;;;;;;;5061580;28;20059;-31
2023/12/05 10:21:33;;;;;;;3.20;2.60;;;21.20;60.80;;;;;;5081870;28;20044;-27
2023/12/05 10:24:01;;;;;;;3.20;2.70;;;;;;;;;;5082908;28;20105;-29
2023/12/05 10:26:28;;;;;;;3.22;2.67;;;21.50;61.60;;;;;;4918144;28;20054;-25
2023/12/05 10:28:57;;;;;;;4.05;3.03;;;21.60;61.30;;;;;;5000539;28;20096;-26
2023/12/05 10:31:24;;;;;;;2.58;2.20;;;21.70;61.10;;;;;;4935050;28;60937;-26
2023/12/05 10:33:51;;;;;;;3.08;2.65;;;21.10;41.80;;;;;;4960894;28;20046;-27
2023/12/05 10:36:18;;;;;;;3.05;2.67;;;21.10;60.70;;;;;;5028837;28;20045;-26
2023/12/05 10:38:45;;;;;;;3.47;2.60;;;;;;;;;;5029430;28;20097;-30
2023/12/05 10:41:12;;;;;;;3.38;2.53;;;21.80;61.00;;;;;;5033260;28;20228;-32
2023/12/05 10:43:40;;;;;;;3.67;2.88;;;;;;;;;;5044663;28;20456;-31
2023/12/05 10:46:08;;;;;;;3.05;2.50;;;21.70;61.00;;;;;;5033361;28;20450;-32
2023/12/05 10:48:36;;;;;;;3.53;2.97;;;22.20;61.60;;;;;;5034805;28;20088;-29
2023/12/05 10:51:03;;;;;;;5.40;2.90;;;21.70;61.20;;;;;;5034100;28;20072;-31
2023/12/05 10:53:29;;;;;;;3.33;2.70;;;21.60;54.00;;;;;;5032026;28;20053;-29
2023/12/05 10:55:56;;;;;;;3.13;2.60;;;22.20;42.30;;;;;;5033711;28;20060;-29
2023/12/05 10:58:23;;;;;;;3.00;2.60;;;21.70;42.00;;;;;;5032140;28;20057;-27
2023/12/05 11:00:50;;;;;;;3.33;2.72;;;21.60;61.10;;;;;;5033128;28;20049;-26
2023/12/05 11:03:18;;;;;;;3.03;2.60;;;21.70;61.80;;;;;;5032743;28;20127;-27
2023/12/05 11:05:46;;;;;;;4.05;2.60;;;;;;;;;;5034119;28;20115;-29
2023/12/05 11:08:13;;;;;;;3.15;2.70;;;21.70;61.70;;;;;;5033608;28;20188;-27
2023/12/05 11:10:40;;;;;;;3.03;2.50;;;;;;;;;;5034038;28;20050;-29
2023/12/05 11:13:07;;;;;;;3.22;2.72;;;21.60;60.80;;;;;;5037074;28;20111;-27
2023/12/05 11:15:36;;;;;;;3.33;2.90;;;21.70;42.00;;;;;;5033694;28;20041;-27
2023/12/05 11:18:06;;;;;;;3.05;2.72;;;21.90;61.20;;;;;;5043024;28;20156;-31
2023/12/05 11:20:49;;;;;;;3.63;2.80;;;21.70;42.00;;;;;;5032888;28;20049;-28
2023/12/05 11:23:31;;;;;;;3.05;2.67;;;21.60;52.10;;;;;;5038252;28;20045;-29
2023/12/05 11:26:02;;;;;;;5.72;2.85;;;21.70;42.10;;;;;;5041449;28;20049;-28
2023/12/05 11:28:43;;;;;;;3.00;2.60;;;21.50;44.10;;;;;;5045900;28;20073;-30
2023/12/05 11:31:14;;;;;;;2.92;2.40;;;21.70;61.70;;;;;;5033611;28;20119;-33
2023/12/05 11:33:59;;;;;;;3.35;2.85;;;22.50;62.10;;;;;;5034788;28;20053;-32
2023/12/05 11:36:40;;;;;;;3.42;2.47;;;21.70;61.30;;;;;;5036480;28;20099;-26
2023/12/05 11:39:07;;;;;;;2.97;2.58;;;21.80;59.80;;;;;;5036020;28;20049;-26
2023/12/05 11:41:34;;;;;;;3.33;2.90;;;21.70;60.90;;;;;;5036246;28;20095;-31
2023/12/05 11:44:19;;;;;;;3.00;2.60;;;21.70;42.10;;;;;;5035751;28;20046;-30
2023/12/05 11:46:47;;;;;;;;;;;21.70;42.70;;;;;;5044533;28;20506;-31
2023/12/05 11:49:27;;;;;;;3.53;2.90;;;21.70;61.30;;;;;;5048362;28;19931;-30
2023/12/05 11:51:55;;;;;;;3.30;2.72;;;21.70;45.30;;;;;;5044355;28;20049;-29
2023/12/05 11:54:23;;;;;;;3.80;3.00;;;21.60;42.30;;;;;;5039085;28;20061;-31
2023/12/05 11:56:50;;;;;;;6.00;2.97;;;;;;;;;;5042883;28;20107;-30
2023/12/05 11:59:20;;;;;;;3.67;3.10;;;21.70;42.30;;;;;;5043340;28;20058;-30
2023/12/05 12:01:48;;;;;;;3.22;2.75;;;21.70;42.30;;;;;;5050538;28;20076;-30
2023/12/05 12:04:19;;;;;;;3.58;2.85;;;21.70;42.30;;;;;;5036257;28;20132;-27
2023/12/05 12:06:47;;;;;;;4.13;3.10;;;21.80;61.90;;;;;;5033932;28;20045;-27
2023/12/05 12:09:15;;;;;;;4.72;3.20;;;21.50;51.20;;;;;;5033218;28;20076;-28
2023/12/05 12:11:42;;;;;;;3.67;3.00;;;21.70;57.20;;;;;;5038856;28;20044;-27
2023/12/05 12:14:15;;;;;;;4.20;3.08;;;21.60;61.10;;;;;;5042164;28;20095;-27
2023/12/05 12:16:42;;;;;;;3.72;2.92;;;;;;;;;;5041060;28;20576;-28
2023/12/05 12:19:11;;;;;;;3.90;3.13;;;;;;;;;;5033309;28;20057;-29
2023/12/05 12:21:38;;;;;;;5.72;2.97;;;21.50;48.90;;;;;;5046993;28;20077;-28
2023/12/05 12:24:05;;;;;;;5.47;2.97;;;21.60;62.00;;;;;;5050472;28;20045;-32
2023/12/05 12:26:33;;;;;;;4.00;3.10;;;22.20;45.90;;;;;;5039640;28;20049;-28
2023/12/05 12:29:07;;;;;;;4.70;3.22;;;21.60;42.50;;;;;;5033136;28;20410;-28
2023/12/05 12:31:35;;;;;;;8.73;3.17;;;;;;;;;;5044548;28;20049;-28
2023/12/05 12:34:03;;;;;;;4.15;2.90;;;22.10;61.80;;;;;;5038275;28;20104;-27
2023/12/05 12:36:34;;;;;;;3.78;3.10;;;;;;;;;;5046736;28;20106;-31
2023/12/05 12:39:01;;;;;;;5.80;3.30;;;21.60;61.60;;;;;;5052602;28;20440;-32
2023/12/05 12:41:28;;;;;;;4.00;3.20;;;21.50;61.50;;;;;;5052798;28;20044;-33
2023/12/05 12:43:56;;;;;;;4.38;3.50;;;20.90;42.00;;;;;;5052678;28;20045;-30
2023/12/05 12:46:23;;;;;;;3.40;3.00;;;21.70;52.70;;;;;;5052194;28;20115;-27
2023/12/05 12:48:50;;;;;;;3.75;2.97;;;21.50;61.60;;;;;;5052767;28;20045;-27
2023/12/05 12:51:17;;;;;;;3.88;3.35;;;;;;;;;;5052834;28;20095;-31
2023/12/05 12:53:46;;;;;;;3.92;3.33;;;;;;;;;;5048904;28;20049;-32
2023/12/05 12:56:13;;;;;;;4.07;3.40;;;21.60;42.40;;;;;;5032476;28;20237;-27
2023/12/05 12:58:42;;;;;;;3.80;3.00;;;21.60;51.30;;;;;;5034445;28;20107;-27
2023/12/05 13:01:11;;;;;;;4.28;3.65;;;21.50;42.30;;;;;;5052984;28;20052;-27
2023/12/05 13:03:38;;;;;;;4.28;3.40;;;21.40;61.40;;;;;;5052027;28;20053;-26
2023/12/05 13:06:05;;;;;;;4.88;3.30;;;21.50;42.30;;;;;;5052339;28;20049;-28
2023/12/05 13:08:32;;;;;;;3.33;3.00;;;21.80;62.20;;;;;;5052285;28;20068;-32
2023/12/05 13:10:59;;;;;;;4.20;3.22;;;;;;;;;;5052261;28;20489;-28
2023/12/05 13:13:26;;;;;;;5.05;3.60;;;21.50;61.90;;;;;;5052217;28;20461;-27
2023/12/05 13:15:54;;;;;;;4.78;3.20;;;;;;;;;;5052197;28;20045;-29